Terminal Aerodrome Forecast
Issued by NWS

Home | Current Version | Previous Version | Text Only | Print | Product List | Glossary On
Versions: 1 2 3 4 5 6 7 8 9 10 11 12 13 14 15 16 17 18 19 20 21 22 23 24 25
000
FTUS43 KMQT 222333
TAFCMX
TAF
KCMX 222333Z 2300/2324 08007KT P6SM VCSH SCT200
     FM230200 10006KT P6SM SCT200 WS020/20030KT
     FM230500 14004KT P6SM SCT140 WS020/22040KT
     FM230700 17004KT P6SM SCT150 WS020/23040KT
     FM231200 22007KT P6SM SCT200 WS020/25030KT
     FM231300 22009KT P6SM SCT200
     FM231500 25012KT P6SM SCT200
     FM231800 22009KT P6SM SCT200=

USA.gov is the U.S. government's official web portal to all federal, state and local government web resources and services.